Time;durP1;ratioP1;P1;durP2;ratioP2;P2;SDS_P1;SDS_P2;PMS_P1;PMS_P2;Temp;Humidity;BMP_temperature;BMP_pressure;BME280_temperature;BME280_humidity;BME280_pressure;Samples;Min_cycle;Max_cycle;Signal;HPM_P1;HPM_P2
2024/02/02 03:40:18;;;;;;;;;;;15.30;60.20;;;;;;5110531;27;19931;-78
2024/02/02 03:42:43;;;;;;;;;;;15.30;60.30;;;;;;5110565;28;19918;-78
2024/02/02 03:45:09;;;;;;;;;;;15.20;60.20;;;;;;5110223;28;20011;-69
2024/02/02 03:47:35;;;;;;;;;;;15.20;60.00;;;;;;5110042;28;19915;-69
2024/02/02 03:50:00;;;;;;;;;;;15.20;59.90;;;;;;5110145;28;20011;-69
2024/02/02 03:52:26;;;;;;;;;;;15.30;60.20;;;;;;5110244;28;19908;-69
2024/02/02 03:54:52;;;;;;;;;;;15.20;60.20;;;;;;5109910;28;19908;-69
2024/02/02 03:57:18;;;;;;;;;;;15.20;60.40;;;;;;5109802;28;19927;-69
2024/02/02 03:59:43;;;;;;;;;;;15.10;60.20;;;;;;5109622;28;19916;-69
2024/02/02 04:02:09;;;;;;;;;;;15.20;60.40;;;;;;5110132;28;19912;-69
2024/02/02 04:04:34;;;;;;;;;;;15.10;60.50;;;;;;5109739;28;20392;-69
2024/02/02 04:07:00;;;;;;;;;;;15.10;60.40;;;;;;5110004;28;20366;-69
2024/02/02 04:09:25;;;;;;;;;;;15.20;60.10;;;;;;5109696;28;19920;-69
2024/02/02 04:11:51;;;;;;;;;;;15.20;60.30;;;;;;5109529;28;19915;-69
2024/02/02 04:14:18;;;;;;;;;;;15.10;59.90;;;;;;5109904;28;20280;-78
2024/02/02 04:16:43;;;;;;;;;;;15.30;60.30;;;;;;5108596;28;19961;-78
2024/02/02 04:19:14;;;;;;;;;;;15.10;60.40;;;;;;5109463;28;19924;-77
2024/02/02 04:21:40;;;;;;;;;;;15.10;60.20;;;;;;5109801;28;19907;-77
2024/02/02 04:24:06;;;;;;;;;;;15.10;61.00;;;;;;5109415;28;19912;-77
2024/02/02 04:26:32;;;;;;;;;;;15.10;59.80;;;;;;5109701;28;19953;-78
2024/02/02 04:28:57;;;;;;;;;;;15.10;60.50;;;;;;5109744;28;20291;-77
2024/02/02 04:31:23;;;;;;;;;;;15.10;60.70;;;;;;5109077;28;19915;-77
2024/02/02 04:33:48;;;;;;;;;;;15.20;60.70;;;;;;5109357;28;19912;-78
2024/02/02 04:36:14;;;;;;;;;;;15.20;60.60;;;;;;5109177;28;19912;-78
2024/02/02 04:38:39;;;;;;;;;;;15.10;60.80;;;;;;5108796;28;19924;-78
2024/02/02 04:41:05;;;;;;;;;;;15.10;60.80;;;;;;5108999;28;19908;-77
2024/02/02 04:43:30;;;;;;;;;;;15.10;60.50;;;;;;5108980;28;20553;-78
2024/02/02 04:45:56;;;;;;;;;;;15.10;60.70;;;;;;5109061;28;19916;-78
2024/02/02 04:48:21;;;;;;;;;;;15.20;61.00;;;;;;5107904;28;19908;-78
2024/02/02 04:50:47;;;;;;;;;;;15.10;60.50;;;;;;5100038;28;20332;-78
2024/02/02 04:53:13;;;;;;;;;;;15.20;60.90;;;;;;5095056;28;19908;-78
2024/02/02 04:55:38;;;;;;;;;;;15.20;60.90;;;;;;5095111;28;19908;-78
2024/02/02 04:58:04;;;;;;;;;;;15.10;60.90;;;;;;5095414;28;19922;-69
2024/02/02 05:00:29;;;;;;;;;;;15.10;60.90;;;;;;5094995;28;19951;-69
2024/02/02 05:02:55;;;;;;;;;;;15.10;60.80;;;;;;5094995;28;20382;-69
2024/02/02 05:05:20;;;;;;;;;;;15.20;61.00;;;;;;5094951;28;19955;-69
2024/02/02 05:07:46;;;;;;;;;;;15.10;61.50;;;;;;5095093;28;19908;-69
2024/02/02 05:10:11;;;;;;;;;;;15.10;60.70;;;;;;5094921;28;19908;-69
2024/02/02 05:12:37;;;;;;;;;;;15.10;60.70;;;;;;5094905;28;19908;-69
2024/02/02 05:15:02;;;;;;;;;;;15.10;61.20;;;;;;5094861;28;19919;-69
2024/02/02 05:17:28;;;;;;;;;;;15.10;60.00;;;;;;5094892;28;19908;-69
2024/02/02 05:19:53;;;;;;;;;;;15.10;60.70;;;;;;5094645;28;19916;-69
2024/02/02 05:22:19;;;;;;;;;;;15.10;60.90;;;;;;5094469;28;20377;-69
2024/02/02 05:24:46;;;;;;;;;;;15.10;60.80;;;;;;5094949;28;20315;-69
2024/02/02 05:27:12;;;;;;;;;;;15.20;60.90;;;;;;5095140;28;19908;-69
2024/02/02 05:29:38;;;;;;;;;;;15.00;60.60;;;;;;5094307;28;20374;-69
2024/02/02 05:32:05;;;;;;;;;;;15.00;60.70;;;;;;5094600;28;19916;-69
2024/02/02 05:34:31;;;;;;;;;;;15.10;59.50;;;;;;5094594;28;20410;-69
2024/02/02 05:36:57;;;;;;;;;;;15.10;60.70;;;;;;5094779;28;19938;-69
2024/02/02 05:39:23;;;;;;;;;;;15.00;60.60;;;;;;5094210;28;19935;-69
2024/02/02 05:41:51;;;;;;;;;;;15.10;60.80;;;;;;5094538;28;19912;-69
2024/02/02 05:44:17;;;;;;;;;;;15.10;60.90;;;;;;5094222;28;19908;-69
2024/02/02 05:46:43;;;;;;;;;;;15.10;60.80;;;;;;5094557;28;19916;-69
2024/02/02 05:49:10;;;;;;;;;;;15.10;60.70;;;;;;5094328;28;19948;-69
2024/02/02 05:51:36;;;;;;;;;;;15.00;60.60;;;;;;5094269;28;19909;-69
2024/02/02 05:54:02;;;;;;;;;;;15.10;60.60;;;;;;5094417;28;19969;-69
2024/02/02 05:56:28;;;;;;;;;;;15.00;60.20;;;;;;5094674;28;19908;-69
2024/02/02 05:58:54;;;;;;;;;;;15.00;61.00;;;;;;5094079;28;19950;-69
2024/02/02 06:01:20;;;;;;;;;;;14.90;60.30;;;;;;5093596;28;20273;-69
2024/02/02 06:03:46;;;;;;;;;;;15.00;60.40;;;;;;5093320;28;19922;-69
2024/02/02 06:06:12;;;;;;;;;;;14.90;60.70;;;;;;5094173;28;20335;-69
2024/02/02 06:08:37;;;;;;;;;;;15.10;60.70;;;;;;5093843;28;20014;-69
2024/02/02 06:11:05;;;;;;;;;;;14.90;60.60;;;;;;5093790;28;20018;-69
2024/02/02 06:13:32;;;;;;;;;;;14.90;57.80;;;;;;5093719;28;19908;-69
2024/02/02 06:15:58;;;;;;;;;;;15.10;61.00;;;;;;5092775;28;19967;-70
2024/02/02 06:18:23;;;;;;;;;;;14.90;61.30;;;;;;5093615;28;20007;-69
2024/02/02 06:20:49;;;;;;;;;;;15.00;60.50;;;;;;5093549;28;19916;-69
2024/02/02 06:23:14;;;;;;;;;;;14.90;60.60;;;;;;5093937;28;19908;-69
2024/02/02 06:25:40;;;;;;;;;;;14.90;60.70;;;;;;5093615;28;19919;-69
2024/02/02 06:28:06;;;;;;;;;;;14.90;60.60;;;;;;5093345;28;20397;-69
2024/02/02 06:30:32;;;;;;;;;;;14.80;59.50;;;;;;5093337;28;19939;-69
2024/02/02 06:32:59;;;;;;;;;;;14.90;60.20;;;;;;5093406;28;20392;-69
2024/02/02 06:35:25;;;;;;;;;;;15.10;60.40;;;;;;5095564;28;19908;-69
2024/02/02 06:37:51;;;;;;;;;;;14.90;60.80;;;;;;5096014;28;19908;-68
2024/02/02 06:40:16;;;;;;;;;;;14.90;60.50;;;;;;5093424;28;20454;-69
2024/02/02 06:42:42;;;;;;;;;;;14.90;60.10;;;;;;5093020;28;19927;-69
2024/02/02 06:45:08;;;;;;;;;;;14.80;60.40;;;;;;5093093;28;20370;-69
2024/02/02 06:47:33;;;;;;;;;;;14.80;59.30;;;;;;5092953;28;20010;-69
2024/02/02 06:49:59;;;;;;;;;;;14.80;60.60;;;;;;5092874;28;19912;-69
2024/02/02 06:52:25;;;;;;;;;;;14.80;60.60;;;;;;5093731;28;19950;-69
2024/02/02 06:54:50;;;;;;;;;;;14.80;60.70;;;;;;5092847;28;20278;-69
2024/02/02 06:57:16;;;;;;;;;;;14.80;61.10;;;;;;5092801;28;20277;-69
2024/02/02 06:59:43;;;;;;;;;;;14.80;60.70;;;;;;5092628;28;19916;-69
2024/02/02 07:02:19;;;;;;;;;;;14.80;60.60;;;;;;5092780;28;19912;-69
2024/02/02 07:04:45;;;;;;;;;;;14.80;56.70;;;;;;5092803;28;20017;-70
2024/02/02 07:07:11;;;;;;;;;;;14.80;61.10;;;;;;5093322;28;19908;-70
2024/02/02 07:09:38;;;;;;;;;;;14.70;61.00;;;;;;5095491;28;20007;-68
2024/02/02 07:12:09;;;;;;;;;;;14.80;61.10;;;;;;5092590;28;19909;-70
2024/02/02 07:14:37;;;;;;;;;;;14.70;56.70;;;;;;5092415;28;19950;-71
2024/02/02 07:17:04;;;;;;;;;;;14.80;56.70;;;;;;5092694;28;20266;-70
2024/02/02 07:19:42;;;;;;;;;;;14.80;60.90;;;;;;5092674;28;20391;-71
2024/02/02 07:22:26;;;;;;;;;;;14.80;57.10;;;;;;5093019;28;19943;-70
2024/02/02 07:24:52;;;;;;;;;;;14.80;56.80;;;;;;5092646;28;20312;-71
2024/02/02 07:27:33;;;;;;;;;;;14.80;60.90;;;;;;5092323;28;19915;-70
2024/02/02 07:29:59;;;;;;;;;;;14.20;60.80;;;;;;5092496;28;19978;-70
2024/02/02 07:32:25;;;;;;;;;;;14.80;60.90;;;;;;5092337;28;20366;-69
2024/02/02 07:34:51;;;;;;;;;;;14.70;61.20;;;;;;5092548;28;19908;-69
2024/02/02 07:37:37;;;;;;;;;;;14.80;61.10;;;;;;5092362;28;19995;-69
2024/02/02 07:40:23;;;;;;;;;;;14.80;61.20;;;;;;5091942;28;19920;-69
2024/02/02 07:42:49;;;;;;;;;;;14.80;61.40;;;;;;5092229;28;19945;-69
2024/02/02 07:45:14;;;;;;;;;;;14.90;61.50;;;;;;5091073;28;20067;-69
2024/02/02 07:47:40;;;;;;;;;;;14.80;61.40;;;;;;5090979;28;19916;-69
2024/02/02 07:50:06;;;;;;;;;;;14.70;61.30;;;;;;5091236;28;19916;-70
2024/02/02 07:52:31;;;;;;;;;;;14.90;61.10;;;;;;5090878;28;19916;-69
2024/02/02 07:54:57;;;;;;;;;;;14.80;61.80;;;;;;5090801;28;20283;-69
2024/02/02 07:57:23;;;;;;;;;;;14.80;61.50;;;;;;5090796;28;19912;-69
2024/02/02 07:59:48;;;;;;;;;;;14.80;61.40;;;;;;5090820;28;19920;-70
2024/02/02 08:02:14;;;;;;;;;;;14.80;61.60;;;;;;5090847;28;19913;-69
2024/02/02 08:04:39;;;;;;;;;;;14.80;61.50;;;;;;5092060;28;19924;-70
2024/02/02 08:07:05;;;;;;;;;;;14.80;61.50;;;;;;5090770;28;19913;-69
2024/02/02 08:09:30;;;;;;;;;;;14.80;62.00;;;;;;5090783;28;19924;-69
2024/02/02 08:11:56;;;;;;;;;;;14.80;61.60;;;;;;5090776;28;19912;-70
2024/02/02 08:14:22;;;;;;;;;;;14.90;61.60;;;;;;5090779;28;19913;-69
2024/02/02 08:16:47;;;;;;;;;;;14.80;61.90;;;;;;5090633;28;19912;-69
2024/02/02 08:19:13;;;;;;;;;;;14.90;62.30;;;;;;5091042;28;20402;-76
2024/02/02 08:21:38;;;;;;;;;;;15.10;62.00;;;;;;5092006;28;19908;-76
2024/02/02 08:24:04;;;;;;;;;;;14.90;61.60;;;;;;5091854;28;20285;-76
2024/02/02 08:26:29;;;;;;;;;;;14.90;61.20;;;;;;5094720;28;20469;-77
2024/02/02 08:28:55;;;;;;;;;;;14.80;61.60;;;;;;5096169;28;20377;-76
2024/02/02 08:31:21;;;;;;;;;;;14.80;61.80;;;;;;5095852;28;19908;-76
2024/02/02 08:33:46;;;;;;;;;;;15.00;61.90;;;;;;5096392;28;20239;-77
2024/02/02 08:36:12;;;;;;;;;;;14.80;61.70;;;;;;5095690;28;19909;-76
2024/02/02 08:38:38;;;;;;;;;;;14.90;61.60;;;;;;5095280;28;19972;-77
2024/02/02 08:41:04;;;;;;;;;;;14.90;61.20;;;;;;5095527;28;19908;-77
2024/02/02 08:43:29;;;;;;;;;;;14.90;61.40;;;;;;5095554;28;19919;-77
2024/02/02 08:45:55;;;;;;;;;;;14.90;61.80;;;;;;5096054;28;20289;-77
2024/02/02 08:48:21;;;;;;;;;;;15.00;61.50;;;;;;5095661;28;20409;-77
2024/02/02 08:50:47;;;;;;;;;;;14.90;61.60;;;;;;5095289;28;19967;-77
2024/02/02 08:53:15;;;;;;;;;;;14.90;62.10;;;;;;5095290;28;19908;-77
2024/02/02 08:55:44;;;;;;;;;;;14.90;62.20;;;;;;5095283;28;19908;-77
2024/02/02 08:58:15;;;;;;;;;;;14.90;61.80;;;;;;5095164;28;19912;-77
2024/02/02 09:00:41;;;;;;;;;;;14.90;62.10;;;;;;5095449;28;20002;-77
2024/02/02 09:03:22;;;;;;;;;;;14.90;62.10;;;;;;5095208;28;19915;-76
2024/02/02 09:05:52;;;;;;;;;;;14.90;57.60;;;;;;5095111;28;19954;-76
2024/02/02 09:08:26;;;;;;;;;;;14.90;57.80;;;;;;5094976;28;19916;-76
2024/02/02 09:10:55;;;;;;;;;;;14.90;57.70;;;;;;5095069;28;19908;-76
2024/02/02 09:13:23;;;;;;;;;;;15.00;57.60;;;;;;5094988;28;19908;-76
2024/02/02 09:15:48;;;;;;;;;;;14.90;62.20;;;;;;5096154;28;19915;-78
2024/02/02 09:18:22;;;;;;;;;;;14.90;62.20;;;;;;5097783;28;19908;-78
2024/02/02 09:20:51;;;;;;;;;;;14.90;62.60;;;;;;5094780;28;19931;-77
2024/02/02 09:23:16;;;;;;;;;;;15.00;62.20;;;;;;5094891;28;19909;-77
2024/02/02 09:25:43;;;;;;;;;;;14.90;62.00;;;;;;5095286;28;20273;-75
2024/02/02 09:28:24;;;;;;;;;;;14.90;62.40;;;;;;5094890;28;19915;-75
2024/02/02 09:30:55;;;;;;;;;;;14.90;57.90;;;;;;5094638;28;19937;-77
2024/02/02 09:33:30;;;;;;;;;;;14.90;57.80;;;;;;5094676;28;19922;-76
2024/02/02 09:35:56;;;;;;;;;;;15.00;58.10;;;;;;5094494;28;20362;-77
2024/02/02 09:38:21;;;;;;;;;;;15.00;62.20;;;;;;5094453;28;19931;-82
2024/02/02 09:41:13;;;;;;;;;;;15.00;62.00;;;;;;5094620;28;20440;-76
2024/02/02 09:43:50;;;;;;;;;;;15.00;57.90;;;;;;5094384;28;19915;-76
2024/02/02 09:46:22;;;;;;;;;;;15.00;58.10;;;;;;5094601;28;19960;-74
2024/02/02 09:49:07;;;;;;;;;;;15.00;58.00;;;;;;5094479;28;19915;-75
2024/02/02 09:51:48;;;;;;;;;;;15.00;57.80;;;;;;5094199;28;19912;-75
2024/02/02 09:54:28;;;;;;;;;;;15.00;58.00;;;;;;5094157;28;19959;-75
2024/02/02 09:57:13;;;;;;;;;;;15.00;57.90;;;;;;5094190;28;20350;-75
2024/02/02 09:59:47;;;;;;;;;;;15.00;58.00;;;;;;5093960;28;20267;-75
2024/02/02 10:02:38;;;;;;;;;;;15.00;58.00;;;;;;5094602;28;20411;-76
2024/02/02 10:05:04;;;;;;;;;;;15.30;58.40;;;;;;5093954;28;19912;-75
2024/02/02 10:07:50;;;;;;;;;;;15.00;62.10;;;;;;5094169;28;19965;-76
2024/02/02 10:10:19;;;;;;;;;;;15.10;62.40;;;;;;5093357;28;19908;-76
2024/02/02 10:12:44;;;;;;;;;;;15.00;58.20;;;;;;5093651;28;20292;-76
2024/02/02 10:15:27;;;;;;;;;;;15.10;62.40;;;;;;5094057;28;19908;-76
2024/02/02 10:18:25;;;;;;;;;;;15.00;62.50;;;;;;5093830;28;20049;-76
2024/02/02 10:21:20;;;;;;;;;;;15.00;58.40;;;;;;5070234;28;19970;-76
2024/02/02 10:23:48;;;;;;;;;;;15.00;58.30;;;;;;5084231;28;19939;-76
2024/02/02 10:26:16;;;;;;;;;;;15.10;58.60;;;;;;5093550;28;20455;-76
2024/02/02 10:28:45;;;;;;;;;;;15.10;58.50;;;;;;5093452;28;20262;-76
2024/02/02 10:31:10;;;;;;;;;;;15.10;58.40;;;;;;5093864;28;19934;-76
2024/02/02 10:33:42;;;;;;;;;;;15.10;62.70;;;;;;5093354;28;19908;-77
2024/02/02 10:36:14;;;;;;;;;;;15.10;58.40;;;;;;5093348;28;19962;-75
2024/02/02 10:38:58;;;;;;;;;;;15.10;58.30;;;;;;5093099;28;19979;-76
2024/02/02 10:41:29;;;;;;;;;;;15.10;58.40;;;;;;5093556;28;19995;-76
2024/02/02 10:44:13;;;;;;;;;;;15.10;63.10;;;;;;5093348;28;19908;-76
2024/02/02 10:46:45;;;;;;;;;;;15.10;58.50;;;;;;5093201;28;19908;-75
2024/02/02 10:49:10;;;;;;;;;;;15.10;62.60;;;;;;5092564;28;19912;-76
2024/02/02 10:51:46;;;;;;;;;;;15.10;62.70;;;;;;5093005;28;19914;-76
2024/02/02 10:54:20;;;;;;;;;;;15.10;58.70;;;;;;5093015;28;19908;-76
2024/02/02 10:56:56;;;;;;;;;;;15.10;58.50;;;;;;5092853;28;19961;-76
2024/02/02 10:59:25;;;;;;;;;;;15.10;58.80;;;;;;5093541;28;19920;-75
2024/02/02 11:01:55;;;;;;;;;;;15.10;58.70;;;;;;5092787;28;20393;-75
2024/02/02 11:04:40;;;;;;;;;;;15.10;63.10;;;;;;5093094;28;19961;-80
2024/02/02 11:07:24;;;;;;;;;;;15.10;59.10;;;;;;5092725;28;20378;-74
2024/02/02 11:10:09;;;;;;;;;;;15.10;59.10;;;;;;5092791;28;19935;-79
2024/02/02 11:12:57;;;;;;;;;;;15.10;59.20;;;;;;5092775;28;19931;-76
2024/02/02 11:15:34;;;;;;;;;;;15.10;63.90;;;;;;5092757;28;19915;-75
2024/02/02 11:18:03;;;;;;;;;;;15.10;59.00;;;;;;5092587;28;19915;-77
2024/02/02 11:20:28;;;;;;;;;;;15.20;59.40;;;;;;5092464;28;20045;-75
2024/02/02 11:22:57;;;;;;;;;;;15.20;63.30;;;;;;5092498;28;19957;-76
2024/02/02 11:25:29;;;;;;;;;;;15.20;59.30;;;;;;5092501;28;19997;-76
2024/02/02 11:27:55;;;;;;;;;;;15.20;59.40;;;;;;5093014;28;19915;-78
2024/02/02 11:30:35;;;;;;;;;;;15.20;63.60;;;;;;5092711;28;19908;-77
2024/02/02 11:33:07;;;;;;;;;;;15.10;59.20;;;;;;5092515;28;19908;-77
2024/02/02 11:35:32;;;;;;;;;;;15.20;59.50;;;;;;5092390;28;19908;-76
2024/02/02 11:38:04;;;;;;;;;;;15.20;63.60;;;;;;5092186;28;19908;-74
2024/02/02 11:40:30;;;;;;;;;;;15.20;59.40;;;;;;5092507;28;19943;-68
2024/02/02 11:42:57;;;;;;;;;;;15.20;63.50;;;;;;5092164;28;20405;-69
2024/02/02 11:45:28;;;;;;;;;;;15.20;64.10;;;;;;5092240;28;20255;-69
2024/02/02 11:47:57;;;;;;;;;;;15.30;63.90;;;;;;5092100;28;19908;-69
2024/02/02 11:50:25;;;;;;;;;;;15.20;63.60;;;;;;5091826;28;19915;-70
2024/02/02 11:53:14;;;;;;;;;;;15.20;63.80;;;;;;5092167;28;20331;-70
2024/02/02 11:55:43;;;;;;;;;;;15.30;59.70;;;;;;5086667;28;19912;-71
2024/02/02 11:58:11;;;;;;;;;;;15.40;64.30;;;;;;5091799;28;19948;-70
2024/02/02 12:00:56;;;;;;;;;;;15.30;64.20;;;;;;5093222;28;19919;-70
2024/02/02 12:03:30;;;;;;;;;;;15.20;59.60;;;;;;5095919;28;20385;-70
2024/02/02 12:06:12;;;;;;;;;;;15.20;59.80;;;;;;5096196;28;19914;-75
2024/02/02 12:08:56;;;;;;;;;;;15.20;59.80;;;;;;5096293;28;19969;-73
2024/02/02 12:11:23;;;;;;;;;;;15.20;59.90;;;;;;5095947;28;19908;-73
2024/02/02 12:13:51;;;;;;;;;;;15.20;64.40;;;;;;5095838;28;19908;-73
2024/02/02 12:16:16;;;;;;;;;;;15.20;64.50;;;;;;5096043;28;19915;-72
2024/02/02 12:18:44;;;;;;;;;;;15.20;64.40;;;;;;5095659;28;20400;-72
2024/02/02 12:21:15;;;;;;;;;;;15.20;64.50;;;;;;5095716;28;19912;-73
2024/02/02 12:23:42;;;;;;;;;;;15.20;64.20;;;;;;5096161;28;19916;-75
2024/02/02 12:26:08;;;;;;;;;;;15.20;64.60;;;;;;5095626;28;19908;-73
2024/02/02 12:28:34;;;;;;;;;;;15.20;64.40;;;;;;5095621;28;20042;-72
2024/02/02 12:30:59;;;;;;;;;;;15.30;64.40;;;;;;5095567;28;19912;-73
2024/02/02 12:33:25;;;;;;;;;;;15.30;64.20;;;;;;5095610;28;19909;-73
2024/02/02 12:35:50;;;;;;;;;;;15.30;64.50;;;;;;5095568;28;19967;-73
2024/02/02 12:38:22;;;;;;;;;;;15.30;64.50;;;;;;5095493;28;19912;-73
2024/02/02 12:40:48;;;;;;;;;;;15.30;60.10;;;;;;5095676;28;20007;-73
2024/02/02 12:43:21;;;;;;;;;;;15.30;64.20;;;;;;5095284;28;20411;-74
2024/02/02 12:45:47;;;;;;;;;;;15.30;64.80;;;;;;5095387;28;19908;-71
2024/02/02 12:48:13;;;;;;;;;;;15.30;64.70;;;;;;5095298;28;20336;-71
2024/02/02 12:50:38;;;;;;;;;;;15.30;64.20;;;;;;5095241;28;19908;-70
2024/02/02 12:53:04;;;;;;;;;;;15.30;64.60;;;;;;5095728;28;19950;-71
2024/02/02 12:55:30;;;;;;;;;;;15.30;64.40;;;;;;5095193;28;19912;-70
2024/02/02 12:57:55;;;;;;;;;;;15.20;64.60;;;;;;5095194;28;19908;-70
2024/02/02 13:00:21;;;;;;;;;;;15.40;64.50;;;;;;5095150;28;19923;-70
2024/02/02 13:02:47;;;;;;;;;;;15.40;64.30;;;;;;5095182;28;19908;-71
2024/02/02 13:05:13;;;;;;;;;;;15.30;64.60;;;;;;5095470;28;19908;-76
2024/02/02 13:07:42;;;;;;;;;;;15.30;65.10;;;;;;5095153;28;19912;-76
2024/02/02 13:10:10;;;;;;;;;;;15.30;60.60;;;;;;5095117;28;20010;-76
2024/02/02 13:12:43;;;;;;;;;;;15.30;64.40;;;;;;5094574;28;19951;-77
2024/02/02 13:15:09;;;;;;;;;;;15.30;65.20;;;;;;5095190;28;20207;-74
2024/02/02 13:17:36;;;;;;;;;;;14.10;64.30;;;;;;5095232;28;19909;-77
2024/02/02 13:20:14;;;;;;;;;;;15.20;65.00;;;;;;5094735;28;19916;-77
2024/02/02 13:22:45;;;;;;;;;;;15.30;60.60;;;;;;5095085;28;20332;-74
2024/02/02 13:25:11;;;;;;;;;;;15.40;60.60;;;;;;5094672;28;20382;-77
2024/02/02 13:27:38;;;;;;;;;;;15.20;64.70;;;;;;5094743;28;19909;-77
2024/02/02 13:30:12;;;;;;;;;;;15.30;65.00;;;;;;5094941;28;19909;-77
2024/02/02 13:32:38;;;;;;;;;;;15.30;64.00;;;;;;5094992;28;19912;-77
2024/02/02 13:35:08;;;;;;;;;;;15.30;65.10;;;;;;5094633;28;19915;-77
2024/02/02 13:37:38;;;;;;;;;;;15.00;64.00;;;;;;5094599;28;19908;-77
2024/02/02 13:40:09;;;;;;;;;;;15.30;65.00;;;;;;5094126;28;19923;-75
2024/02/02 13:42:41;;;;;;;;;;;15.30;63.70;;;;;;5094564;28;19908;-76
2024/02/02 13:45:09;;;;;;;;;;;15.20;60.60;;;;;;5094657;28;19908;-75
2024/02/02 13:47:38;;;;;;;;;;;15.30;64.30;;;;;;5094002;28;19912;-75
2024/02/02 13:50:15;;;;;;;;;;;15.30;64.50;;;;;;5094300;28;19908;-74
2024/02/02 13:52:44;;;;;;;;;;;15.30;64.40;;;;;;5101224;28;19931;-77
2024/02/02 13:55:10;;;;;;;;;;;15.30;65.40;;;;;;5094192;28;19954;-76
2024/02/02 13:57:37;;;;;;;;;;;15.30;65.40;;;;;;5094251;28;20305;-76
2024/02/02 14:00:04;;;;;;;;;;;15.30;64.90;;;;;;5094085;28;19916;-76
2024/02/02 14:02:30;;;;;;;;;;;15.30;64.70;;;;;;5094090;28;19963;-76
2024/02/02 14:04:59;;;;;;;;;;;15.30;65.00;;;;;;5094405;28;20329;-74
2024/02/02 14:07:25;;;;;;;;;;;15.40;61.00;;;;;;5094590;28;19990;-74
2024/02/02 14:10:03;;;;;;;;;;;15.30;65.10;;;;;;5093690;28;19908;-74
2024/02/02 14:12:35;;;;;;;;;;;15.30;60.80;;;;;;5093554;28;19954;-74
2024/02/02 14:15:04;;;;;;;;;;;15.30;65.40;;;;;;5093567;28;20242;-74
2024/02/02 14:17:30;;;;;;;;;;;15.40;61.00;;;;;;5093715;28;19919;-76
2024/02/02 14:20:03;;;;;;;;;;;15.30;65.20;;;;;;5093541;28;19916;-75
2024/02/02 14:22:29;;;;;;;;;;;15.30;61.00;;;;;;5093197;28;19908;-76
2024/02/02 14:24:55;;;;;;;;;;;15.30;65.30;;;;;;5093089;28;20369;-75
2024/02/02 14:27:31;;;;;;;;;;;15.30;65.30;;;;;;5093352;28;19908;-75
2024/02/02 14:29:56;;;;;;;;;;;15.30;65.60;;;;;;5093559;28;19934;-77
2024/02/02 14:32:22;;;;;;;;;;;15.30;65.20;;;;;;5093573;28;19912;-77
2024/02/02 14:34:47;;;;;;;;;;;15.30;65.20;;;;;;5093509;28;20002;-76
2024/02/02 14:37:14;;;;;;;;;;;15.30;65.20;;;;;;5093970;28;19951;-76
2024/02/02 14:39:42;;;;;;;;;;;15.20;66.00;;;;;;5092916;28;19924;-75
2024/02/02 14:42:07;;;;;;;;;;;15.30;65.60;;;;;;5093179;28;19912;-74
2024/02/02 14:44:34;;;;;;;;;;;15.20;65.30;;;;;;5093474;28;20432;-74
2024/02/02 14:47:00;;;;;;;;;;;15.30;65.50;;;;;;5093042;28;19915;-75
2024/02/02 14:49:27;;;;;;;;;;;15.30;65.10;;;;;;5093265;28;19915;-76
2024/02/02 14:51:53;;;;;;;;;;;15.30;65.40;;;;;;5093478;28;19908;-76
2024/02/02 14:54:20;;;;;;;;;;;15.30;65.70;;;;;;5093003;28;19908;-76
2024/02/02 14:56:46;;;;;;;;;;;15.30;65.70;;;;;;5093226;28;19916;-76
2024/02/02 14:59:14;;;;;;;;;;;15.30;65.50;;;;;;5092900;28;20308;-76
2024/02/02 15:01:40;;;;;;;;;;;15.30;65.30;;;;;;5093170;28;20029;-76
2024/02/02 15:04:07;;;;;;;;;;;15.30;66.10;;;;;;5093591;28;20436;-75
2024/02/02 15:06:35;;;;;;;;;;;15.30;65.50;;;;;;5092663;28;19963;-74
2024/02/02 15:09:25;;;;;;;;;;;15.30;65.70;;;;;;5092914;28;20418;-76
2024/02/02 15:11:47;;;;;;;;;;;15.20;65.60;;;;;;5092650;28;19908;-77
2024/02/02 15:14:14;;;;;;;;;;;15.20;65.30;;;;;;5093010;28;19908;-76
2024/02/02 15:16:40;;;;;;;;;;;15.30;65.50;;;;;;5092636;28;19908;-76
2024/02/02 15:19:06;;;;;;;;;;;15.30;65.40;;;;;;5092338;28;19920;-73
2024/02/02 15:21:31;;;;;;;;;;;15.30;65.30;;;;;;5092277;28;19954;-78
2024/02/02 15:23:57;;;;;;;;;;;15.20;65.40;;;;;;5092754;28;19963;-76
2024/02/02 15:26:23;;;;;;;;;;;15.20;65.40;;;;;;5092370;28;19915;-74
2024/02/02 15:28:49;;;;;;;;;;;15.20;65.50;;;;;;5092129;28;19911;-74
2024/02/02 15:31:17;;;;;;;;;;;15.20;65.60;;;;;;5092210;28;20416;-74
2024/02/02 15:33:42;;;;;;;;;;;15.20;65.50;;;;;;5091940;28;19915;-74
2024/02/02 15:36:10;;;;;;;;;;;15.20;65.60;;;;;;5092280;28;19908;-74
2024/02/02 15:38:36;;;;;;;;;;;14.90;65.90;;;;;;5091849;28;19924;-74
2024/02/02 15:41:08;;;;;;;;;;;15.20;65.70;;;;;;5092411;28;20328;-74
2024/02/02 15:43:34;;;;;;;;;;;15.30;65.10;;;;;;5092323;28;20380;-74
2024/02/02 15:46:00;;;;;;;;;;;15.00;66.20;;;;;;5092099;28;19912;-74
2024/02/02 15:48:26;;;;;;;;;;;15.20;65.70;;;;;;5092008;28;20335;-74
2024/02/02 15:50:52;;;;;;;;;;;15.30;65.60;;;;;;5092023;28;19908;-76
2024/02/02 15:53:18;;;;;;;;;;;15.20;65.60;;;;;;5092833;28;19937;-76
2024/02/02 15:55:45;;;;;;;;;;;15.20;65.50;;;;;;5091924;28;19912;-74
2024/02/02 15:58:10;;;;;;;;;;;15.20;65.80;;;;;;5091812;28;20385;-74
2024/02/02 16:00:36;;;;;;;;;;;15.20;65.70;;;;;;5091824;28;20008;-76
2024/02/02 16:03:01;;;;;;;;;;;15.20;65.70;;;;;;5092172;28;19908;-76
2024/02/02 16:05:27;;;;;;;;;;;15.20;65.50;;;;;;5092012;28;19919;-76
2024/02/02 16:07:53;;;;;;;;;;;15.20;65.70;;;;;;5091784;28;20294;-74
2024/02/02 16:10:18;;;;;;;;;;;15.30;65.70;;;;;;5091750;28;20045;-74
2024/02/02 16:12:44;;;;;;;;;;;15.20;65.60;;;;;;5092252;28;19951;-76
2024/02/02 16:15:10;;;;;;;;;;;15.30;65.50;;;;;;5091706;28;19938;-74
2024/02/02 16:17:37;;;;;;;;;;;15.20;65.90;;;;;;5090558;28;19908;-76
2024/02/02 16:20:09;;;;;;;;;;;15.10;65.40;;;;;;5092499;28;20369;-77
2024/02/02 16:22:36;;;;;;;;;;;15.20;61.30;;;;;;5092075;28;19915;-77
2024/02/02 16:25:02;;;;;;;;;;;15.10;65.90;;;;;;5091841;28;19908;-76
2024/02/02 16:27:27;;;;;;;;;;;15.10;65.20;;;;;;5092049;28;20397;-77
2024/02/02 16:29:53;;;;;;;;;;;15.10;65.70;;;;;;5092000;28;19961;-78
2024/02/02 16:32:18;;;;;;;;;;;15.10;65.80;;;;;;5090651;28;19912;-77
2024/02/02 16:34:44;;;;;;;;;;;15.10;65.80;;;;;;5091779;28;19908;-74
2024/02/02 16:37:09;;;;;;;;;;;15.10;65.60;;;;;;5091753;28;19912;-76
2024/02/02 16:39:35;;;;;;;;;;;15.10;65.50;;;;;;5091600;28;19927;-74
2024/02/02 16:42:00;;;;;;;;;;;15.30;65.80;;;;;;5091658;28;19915;-74
2024/02/02 16:44:28;;;;;;;;;;;15.20;66.00;;;;;;5091699;28;19927;-75
2024/02/02 16:46:53;;;;;;;;;;;15.10;65.90;;;;;;5093295;28;20382;-75
2024/02/02 16:49:19;;;;;;;;;;;15.20;65.80;;;;;;5095980;28;19912;-74
2024/02/02 16:51:44;;;;;;;;;;;15.10;66.10;;;;;;5095351;28;20389;-75
2024/02/02 16:54:10;;;;;;;;;;;15.20;66.10;;;;;;5095293;28;19965;-80
2024/02/02 16:56:36;;;;;;;;;;;15.10;66.00;;;;;;5095295;28;19916;-79
2024/02/02 16:59:04;;;;;;;;;;;15.10;65.90;;;;;;5095146;28;19916;-78
2024/02/02 17:01:30;;;;;;;;;;;15.10;66.00;;;;;;5095133;28;19919;-76
2024/02/02 17:03:56;;;;;;;;;;;15.10;66.50;;;;;;5095109;28;20289;-76
2024/02/02 17:06:22;;;;;;;;;;;15.10;66.20;;;;;;5095241;28;20000;-77
2024/02/02 17:08:47;;;;;;;;;;;15.10;66.00;;;;;;5094963;28;20419;-79
2024/02/02 17:11:13;;;;;;;;;;;15.10;66.20;;;;;;5094944;28;19979;-77
2024/02/02 17:13:38;;;;;;;;;;;15.00;66.00;;;;;;5094879;28;19947;-75
2024/02/02 17:16:04;;;;;;;;;;;15.10;66.10;;;;;;5094995;28;19908;-82
2024/02/02 17:18:33;;;;;;;;;;;15.10;65.90;;;;;;5095308;28;19912;-83
2024/02/02 17:21:02;;;;;;;;;;;15.10;61.90;;;;;;5094990;28;20357;-75
2024/02/02 17:23:28;;;;;;;;;;;15.10;66.30;;;;;;5094655;28;19908;-78
2024/02/02 17:25:53;;;;;;;;;;;15.10;66.30;;;;;;5094572;28;19962;-78
2024/02/02 17:28:19;;;;;;;;;;;15.50;66.00;;;;;;5094744;28;19912;-77
2024/02/02 17:30:45;;;;;;;;;;;15.00;66.20;;;;;;5094715;28;20381;-69
2024/02/02 17:33:10;;;;;;;;;;;15.00;66.40;;;;;;5094463;28;19959;-67
2024/02/02 17:35:36;;;;;;;;;;;15.10;66.00;;;;;;5094419;28;19908;-70
2024/02/02 17:38:02;;;;;;;;;;;15.20;66.30;;;;;;5094407;28;19947;-70
2024/02/02 17:40:27;;;;;;;;;;;15.10;66.30;;;;;;5094083;28;19929;-70
2024/02/02 17:42:53;;;;;;;;;;;15.00;66.20;;;;;;5094756;28;19993;-70
2024/02/02 17:45:18;;;;;;;;;;;15.10;66.20;;;;;;5095001;28;19908;-70
2024/02/02 17:47:44;;;;;;;;;;;15.00;65.60;;;;;;5094223;28;19912;-70
2024/02/02 17:50:10;;;;;;;;;;;15.00;65.90;;;;;;5093980;28;20003;-67
2024/02/02 17:52:35;;;;;;;;;;;15.10;66.20;;;;;;5094220;28;19994;-70
2024/02/02 17:55:01;;;;;;;;;;;15.00;66.10;;;;;;5094109;28;19962;-70
2024/02/02 17:57:27;;;;;;;;;;;15.00;66.20;;;;;;5093938;28;20373;-68
2024/02/02 17:59:54;;;;;;;;;;;15.10;66.20;;;;;;5093848;28;19961;-70
2024/02/02 18:02:20;;;;;;;;;;;15.00;66.40;;;;;;5093720;28;19957;-68